sensor_id;sensor_type;location;lat;lon;timestamp;pressure;altitude;pressure_sealevel;temperature;humidity
39223;BME280;24936;46.328;11.026;2023-04-21T00:01:36;94161.25;;;4.86;99.75
39223;BME280;24936;46.328;11.026;2023-04-21T00:04:04;94165.78;;;4.96;99.94
39223;BME280;24936;46.328;11.026;2023-04-21T00:06:29;94156.75;;;4.88;99.82
39223;BME280;24936;46.328;11.026;2023-04-21T00:08:55;94158.44;;;4.89;99.84
39223;BME280;24936;46.328;11.026;2023-04-21T00:11:20;94156.94;;;4.98;100.00
39223;BME280;24936;46.328;11.026;2023-04-21T00:13:46;94153.38;;;4.99;99.64
39223;BME280;24936;46.328;11.026;2023-04-21T00:16:12;94148.47;;;4.95;99.09
39223;BME280;24936;46.328;11.026;2023-04-21T00:18:37;94145.78;;;4.96;98.90
39223;BME280;24936;46.328;11.026;2023-04-21T00:21:03;94151.81;;;4.97;99.14
39223;BME280;24936;46.328;11.026;2023-04-21T00:23:29;94150.00;;;4.86;98.90
39223;BME280;24936;46.328;11.026;2023-04-21T00:25:54;94153.69;;;4.95;99.26
39223;BME280;24936;46.328;11.026;2023-04-21T00:28:19;94142.31;;;4.96;99.00
39223;BME280;24936;46.328;11.026;2023-04-21T00:30:45;94146.03;;;5.04;99.01
39223;BME280;24936;46.328;11.026;2023-04-21T00:33:10;94134.63;;;4.94;98.95
39223;BME280;24936;46.328;11.026;2023-04-21T00:35:36;94136.50;;;4.92;98.61
39223;BME280;24936;46.328;11.026;2023-04-21T00:38:01;94143.72;;;4.88;98.59
39223;BME280;24936;46.328;11.026;2023-04-21T00:40:28;94146.06;;;4.80;98.06
39223;BME280;24936;46.328;11.026;2023-04-21T00:42:53;94151.22;;;4.69;98.01
39223;BME280;24936;46.328;11.026;2023-04-21T00:45:19;94146.38;;;4.75;97.90
39223;BME280;24936;46.328;11.026;2023-04-21T00:47:44;94138.50;;;4.88;98.41
39223;BME280;24936;46.328;11.026;2023-04-21T00:50:10;94138.66;;;4.98;98.65
39223;BME280;24936;46.328;11.026;2023-04-21T00:52:38;94143.75;;;5.00;98.65
39223;BME280;24936;46.328;11.026;2023-04-21T00:55:05;94139.69;;;4.96;98.87
39223;BME280;24936;46.328;11.026;2023-04-21T00:57:31;94142.09;;;4.99;99.24
39223;BME280;24936;46.328;11.026;2023-04-21T00:59:56;94136.09;;;5.10;99.33
39223;BME280;24936;46.328;11.026;2023-04-21T01:02:22;94141.44;;;5.08;99.46
39223;BME280;24936;46.328;11.026;2023-04-21T01:04:47;94140.00;;;5.15;99.63
39223;BME280;24936;46.328;11.026;2023-04-21T01:07:13;94136.91;;;5.10;99.40
39223;BME280;24936;46.328;11.026;2023-04-21T01:09:39;94132.75;;;5.08;99.58
39223;BME280;24936;46.328;11.026;2023-04-21T01:12:09;94137.94;;;4.96;99.42
39223;BME280;24936;46.328;11.026;2023-04-21T01:14:37;94137.06;;;4.84;99.12
39223;BME280;24936;46.328;11.026;2023-04-21T01:17:02;94142.88;;;4.88;98.93
39223;BME280;24936;46.328;11.026;2023-04-21T01:19:32;94130.53;;;4.79;98.85
39223;BME280;24936;46.328;11.026;2023-04-21T01:22:01;94141.34;;;4.85;98.90
39223;BME280;24936;46.328;11.026;2023-04-21T01:24:38;94132.91;;;4.82;98.83
39223;BME280;24936;46.328;11.026;2023-04-21T01:27:16;94139.84;;;4.70;98.35
39223;BME280;24936;46.328;11.026;2023-04-21T01:29:48;94140.53;;;4.61;98.43
39223;BME280;24936;46.328;11.026;2023-04-21T01:32:19;94140.19;;;4.65;98.78
39223;BME280;24936;46.328;11.026;2023-04-21T01:34:46;94142.91;;;4.64;98.84
39223;BME280;24936;46.328;11.026;2023-04-21T01:37:15;94140.69;;;4.70;98.87
39223;BME280;24936;46.328;11.026;2023-04-21T01:39:43;94146.28;;;4.77;99.13
39223;BME280;24936;46.328;11.026;2023-04-21T01:42:09;94148.13;;;4.64;98.12
39223;BME280;24936;46.328;11.026;2023-04-21T01:44:35;94149.72;;;4.53;97.06
39223;BME280;24936;46.328;11.026;2023-04-21T01:47:01;94146.03;;;4.44;96.58
39223;BME280;24936;46.328;11.026;2023-04-21T01:49:26;94148.91;;;4.53;97.29
39223;BME280;24936;46.328;11.026;2023-04-21T01:51:52;94153.59;;;4.72;97.85
39223;BME280;24936;46.328;11.026;2023-04-21T01:54:17;94148.47;;;4.59;97.86
39223;BME280;24936;46.328;11.026;2023-04-21T01:56:43;94149.41;;;4.58;97.85
39223;BME280;24936;46.328;11.026;2023-04-21T01:59:08;94135.75;;;4.54;98.04
39223;BME280;24936;46.328;11.026;2023-04-21T02:01:34;94148.19;;;4.51;98.42
39223;BME280;24936;46.328;11.026;2023-04-21T02:04:01;94146.16;;;4.54;98.06
39223;BME280;24936;46.328;11.026;2023-04-21T02:06:27;94147.25;;;4.52;98.23
39223;BME280;24936;46.328;11.026;2023-04-21T02:08:52;94143.09;;;4.49;98.41
39223;BME280;24936;46.328;11.026;2023-04-21T02:11:18;94151.13;;;4.46;98.37
39223;BME280;24936;46.328;11.026;2023-04-21T02:13:43;94146.63;;;4.48;98.74
39223;BME280;24936;46.328;11.026;2023-04-21T02:16:09;94150.06;;;4.49;98.60
39223;BME280;24936;46.328;11.026;2023-04-21T02:18:34;94148.47;;;4.35;98.86
39223;BME280;24936;46.328;11.026;2023-04-21T02:21:04;94145.00;;;4.34;98.65
39223;BME280;24936;46.328;11.026;2023-04-21T02:23:30;94151.28;;;4.32;98.54
39223;BME280;24936;46.328;11.026;2023-04-21T02:25:55;94146.41;;;4.27;98.90
39223;BME280;24936;46.328;11.026;2023-04-21T02:28:21;94152.53;;;4.26;99.16
39223;BME280;24936;46.328;11.026;2023-04-21T02:30:46;94153.38;;;4.26;99.07
39223;BME280;24936;46.328;11.026;2023-04-21T02:33:12;94152.94;;;4.33;99.13
39223;BME280;24936;46.328;11.026;2023-04-21T02:35:37;94152.09;;;4.32;99.21
39223;BME280;24936;46.328;11.026;2023-04-21T02:38:03;94151.84;;;4.48;99.04
39223;BME280;24936;46.328;11.026;2023-04-21T02:40:31;94147.69;;;4.46;98.95
39223;BME280;24936;46.328;11.026;2023-04-21T02:42:57;94142.91;;;4.39;99.01
39223;BME280;24936;46.328;11.026;2023-04-21T02:45:23;94147.22;;;4.27;98.63
39223;BME280;24936;46.328;11.026;2023-04-21T02:47:48;94144.34;;;4.19;98.57
39223;BME280;24936;46.328;11.026;2023-04-21T02:50:13;94143.06;;;4.25;98.65
39223;BME280;24936;46.328;11.026;2023-04-21T02:52:39;94141.78;;;4.31;98.62
39223;BME280;24936;46.328;11.026;2023-04-21T02:55:05;94138.13;;;4.33;98.70
39223;BME280;24936;46.328;11.026;2023-04-21T02:57:30;94140.19;;;4.41;98.61
39223;BME280;24936;46.328;11.026;2023-04-21T02:59:56;94138.75;;;4.37;98.45
39223;BME280;24936;46.328;11.026;2023-04-21T03:02:21;94134.59;;;4.34;98.61
39223;BME280;24936;46.328;11.026;2023-04-21T03:04:47;94141.03;;;4.41;98.70
39223;BME280;24936;46.328;11.026;2023-04-21T03:07:12;94137.09;;;4.36;98.34
39223;BME280;24936;46.328;11.026;2023-04-21T03:09:39;94148.16;;;4.26;97.93
39223;BME280;24936;46.328;11.026;2023-04-21T03:12:04;94139.41;;;4.27;97.78
39223;BME280;24936;46.328;11.026;2023-04-21T03:14:30;94141.06;;;4.28;97.47
39223;BME280;24936;46.328;11.026;2023-04-21T03:16:58;94132.81;;;4.35;97.56
39223;BME280;24936;46.328;11.026;2023-04-21T03:19:24;94144.19;;;4.34;97.78
39223;BME280;24936;46.328;11.026;2023-04-21T03:21:49;94137.53;;;4.29;97.71
39223;BME280;24936;46.328;11.026;2023-04-21T03:24:14;94138.13;;;4.33;98.14
39223;BME280;24936;46.328;11.026;2023-04-21T03:26:40;94138.63;;;4.38;98.16
39223;BME280;24936;46.328;11.026;2023-04-21T03:29:06;94139.97;;;4.44;98.70
39223;BME280;24936;46.328;11.026;2023-04-21T03:31:31;94148.25;;;4.38;98.49
39223;BME280;24936;46.328;11.026;2023-04-21T03:33:57;94147.94;;;4.29;98.76
39223;BME280;24936;46.328;11.026;2023-04-21T03:36:23;94145.41;;;4.41;98.89
39223;BME280;24936;46.328;11.026;2023-04-21T03:38:48;94141.84;;;4.42;99.10
39223;BME280;24936;46.328;11.026;2023-04-21T03:41:14;94149.28;;;4.35;99.35
39223;BME280;24936;46.328;11.026;2023-04-21T03:43:39;94144.78;;;4.37;99.31
39223;BME280;24936;46.328;11.026;2023-04-21T03:46:05;94138.50;;;4.40;99.64
39223;BME280;24936;46.328;11.026;2023-04-21T03:48:30;94142.78;;;4.41;99.02
39223;BME280;24936;46.328;11.026;2023-04-21T03:50:56;94147.78;;;4.44;98.88
39223;BME280;24936;46.328;11.026;2023-04-21T03:53:22;94144.63;;;4.52;98.70
39223;BME280;24936;46.328;11.026;2023-04-21T03:55:50;94140.34;;;4.51;98.83
39223;BME280;24936;46.328;11.026;2023-04-21T03:58:16;94140.88;;;4.56;98.81
39223;BME280;24936;46.328;11.026;2023-04-21T04:00:41;94148.78;;;4.54;98.98
39223;BME280;24936;46.328;11.026;2023-04-21T04:03:07;94144.75;;;4.50;99.01
39223;BME280;24936;46.328;11.026;2023-04-21T04:05:34;94144.50;;;4.53;99.08
39223;BME280;24936;46.328;11.026;2023-04-21T04:08:00;94147.13;;;4.53;99.31
39223;BME280;24936;46.328;11.026;2023-04-21T04:10:26;94138.34;;;4.54;99.55
39223;BME280;24936;46.328;11.026;2023-04-21T04:12:51;94140.75;;;4.57;99.58
39223;BME280;24936;46.328;11.026;2023-04-21T04:15:17;94145.13;;;4.57;99.61
39223;BME280;24936;46.328;11.026;2023-04-21T04:17:42;94140.16;;;4.54;99.42
39223;BME280;24936;46.328;11.026;2023-04-21T04:20:08;94147.13;;;4.53;99.63
39223;BME280;24936;46.328;11.026;2023-04-21T04:22:33;94142.97;;;4.51;99.90
39223;BME280;24936;46.328;11.026;2023-04-21T04:24:59;94141.63;;;4.45;99.73
39223;BME280;24936;46.328;11.026;2023-04-21T04:27:44;94152.28;;;4.42;100.00
39223;BME280;24936;46.328;11.026;2023-04-21T04:30:11;94143.63;;;4.41;100.00
39223;BME280;24936;46.328;11.026;2023-04-21T04:32:36;94138.59;;;4.51;100.00
39223;BME280;24936;46.328;11.026;2023-04-21T04:35:05;94142.38;;;4.71;100.00
39223;BME280;24936;46.328;11.026;2023-04-21T04:37:30;94146.28;;;4.77;100.00
39223;BME280;24936;46.328;11.026;2023-04-21T04:39:58;94146.16;;;4.79;99.93
39223;BME280;24936;46.328;11.026;2023-04-21T04:42:24;94155.09;;;4.63;99.87
39223;BME280;24936;46.328;11.026;2023-04-21T04:44:53;94156.59;;;4.54;99.90
39223;BME280;24936;46.328;11.026;2023-04-21T04:47:18;94156.59;;;4.54;100.00
39223;BME280;24936;46.328;11.026;2023-04-21T04:49:44;94160.31;;;4.63;100.00
39223;BME280;24936;46.328;11.026;2023-04-21T04:52:10;94161.38;;;4.61;100.00
39223;BME280;24936;46.328;11.026;2023-04-21T04:54:35;94159.66;;;4.72;99.82
39223;BME280;24936;46.328;11.026;2023-04-21T04:57:01;94157.75;;;4.74;99.90
39223;BME280;24936;46.328;11.026;2023-04-21T04:59:27;94148.69;;;4.80;100.00
39223;BME280;24936;46.328;11.026;2023-04-21T05:01:52;94159.31;;;5.01;99.99
39223;BME280;24936;46.328;11.026;2023-04-21T05:04:18;94160.38;;;5.10;99.75
39223;BME280;24936;46.328;11.026;2023-04-21T05:06:44;94160.72;;;5.05;99.73
39223;BME280;24936;46.328;11.026;2023-04-21T05:09:09;94167.91;;;4.90;100.00
39223;BME280;24936;46.328;11.026;2023-04-21T05:11:35;94172.16;;;4.80;100.00
39223;BME280;24936;46.328;11.026;2023-04-21T05:14:00;94174.81;;;4.92;99.92
39223;BME280;24936;46.328;11.026;2023-04-21T05:16:26;94170.41;;;4.92;99.81
39223;BME280;24936;46.328;11.026;2023-04-21T05:18:51;94178.56;;;4.87;100.00
39223;BME280;24936;46.328;11.026;2023-04-21T05:21:26;94183.28;;;4.82;99.92
39223;BME280;24936;46.328;11.026;2023-04-21T05:23:57;94187.06;;;4.78;99.93
39223;BME280;24936;46.328;11.026;2023-04-21T05:26:27;94179.84;;;4.82;99.79
39223;BME280;24936;46.328;11.026;2023-04-21T05:28:56;94177.28;;;4.93;99.88
39223;BME280;24936;46.328;11.026;2023-04-21T05:31:23;94190.78;;;4.87;99.75
39223;BME280;24936;46.328;11.026;2023-04-21T05:33:49;94191.41;;;4.90;99.83
39223;BME280;24936;46.328;11.026;2023-04-21T05:36:15;94194.44;;;4.84;99.69
39223;BME280;24936;46.328;11.026;2023-04-21T05:38:40;94188.50;;;4.82;99.81
39223;BME280;24936;46.328;11.026;2023-04-21T05:41:06;94193.53;;;4.97;99.88
39223;BME280;24936;46.328;11.026;2023-04-21T05:43:32;94187.69;;;5.17;99.73
39223;BME280;24936;46.328;11.026;2023-04-21T05:45:58;94185.06;;;5.06;99.38
39223;BME280;24936;46.328;11.026;2023-04-21T05:48:24;94186.75;;;5.18;99.36
39223;BME280;24936;46.328;11.026;2023-04-21T05:50:49;94187.47;;;5.20;99.26
39223;BME280;24936;46.328;11.026;2023-04-21T05:53:15;94191.06;;;5.31;99.10
39223;BME280;24936;46.328;11.026;2023-04-21T05:55:41;94189.16;;;5.33;99.03
39223;BME280;24936;46.328;11.026;2023-04-21T05:58:06;94187.94;;;5.26;99.20
39223;BME280;24936;46.328;11.026;2023-04-21T06:00:32;94184.75;;;5.22;99.04
39223;BME280;24936;46.328;11.026;2023-04-21T06:02:57;94187.47;;;5.20;98.74
39223;BME280;24936;46.328;11.026;2023-04-21T06:05:23;94187.31;;;5.46;98.44
39223;BME280;24936;46.328;11.026;2023-04-21T06:07:48;94185.44;;;5.60;96.98
39223;BME280;24936;46.328;11.026;2023-04-21T06:10:16;94184.84;;;5.56;97.11
39223;BME280;24936;46.328;11.026;2023-04-21T06:12:41;94188.03;;;5.60;97.18
39223;BME280;24936;46.328;11.026;2023-04-21T06:15:07;94195.53;;;5.76;97.62
39223;BME280;24936;46.328;11.026;2023-04-21T06:17:33;94198.72;;;5.68;97.21
39223;BME280;24936;46.328;11.026;2023-04-21T06:19:58;94202.53;;;5.64;96.40
39223;BME280;24936;46.328;11.026;2023-04-21T06:22:24;94207.28;;;5.70;96.46
39223;BME280;24936;46.328;11.026;2023-04-21T06:24:50;94206.09;;;5.63;96.10
39223;BME280;24936;46.328;11.026;2023-04-21T06:27:16;94202.13;;;5.46;96.44
39223;BME280;24936;46.328;11.026;2023-04-21T06:29:41;94204.59;;;5.36;96.31
39223;BME280;24936;46.328;11.026;2023-04-21T06:32:08;94209.81;;;5.36;95.92
39223;BME280;24936;46.328;11.026;2023-04-21T06:34:33;94203.53;;;5.39;95.78
39223;BME280;24936;46.328;11.026;2023-04-21T06:36:59;94201.53;;;5.54;95.75
39223;BME280;24936;46.328;11.026;2023-04-21T06:39:25;94200.97;;;5.73;96.32
39223;BME280;24936;46.328;11.026;2023-04-21T06:41:51;94197.41;;;5.74;96.07
39223;BME280;24936;46.328;11.026;2023-04-21T06:44:16;94198.84;;;5.89;96.19
39223;BME280;24936;46.328;11.026;2023-04-21T06:46:42;94207.06;;;5.96;96.20
39223;BME280;24936;46.328;11.026;2023-04-21T06:49:07;94206.94;;;5.86;95.49
39223;BME280;24936;46.328;11.026;2023-04-21T06:51:33;94208.50;;;5.89;95.64
39223;BME280;24936;46.328;11.026;2023-04-21T06:53:59;94206.81;;;5.99;95.94
39223;BME280;24936;46.328;11.026;2023-04-21T06:56:26;94211.34;;;5.97;95.09
39223;BME280;24936;46.328;11.026;2023-04-21T06:58:51;94211.13;;;6.00;95.28
39223;BME280;24936;46.328;11.026;2023-04-21T07:01:17;94213.22;;;5.95;95.80
39223;BME280;24936;46.328;11.026;2023-04-21T07:03:43;94210.06;;;6.03;96.70
39223;BME280;24936;46.328;11.026;2023-04-21T07:06:09;94213.25;;;6.06;96.39
39223;BME280;24936;46.328;11.026;2023-04-21T07:08:35;94208.03;;;6.06;96.66
39223;BME280;24936;46.328;11.026;2023-04-21T07:11:01;94216.84;;;6.05;96.64
39223;BME280;24936;46.328;11.026;2023-04-21T07:13:26;94223.44;;;5.98;96.69
39223;BME280;24936;46.328;11.026;2023-04-21T07:15:52;94215.03;;;5.94;97.33
39223;BME280;24936;46.328;11.026;2023-04-21T07:18:18;94209.56;;;5.97;97.47
39223;BME280;24936;46.328;11.026;2023-04-21T07:20:43;94213.97;;;6.08;97.50
39223;BME280;24936;46.328;11.026;2023-04-21T07:23:09;94215.75;;;6.31;97.49
39223;BME280;24936;46.328;11.026;2023-04-21T07:25:34;94219.69;;;6.48;97.05
39223;BME280;24936;46.328;11.026;2023-04-21T07:28:01;94218.00;;;6.58;96.03
39223;BME280;24936;46.328;11.026;2023-04-21T07:30:27;94225.97;;;7.00;95.31
39223;BME280;24936;46.328;11.026;2023-04-21T07:32:53;94221.78;;;7.42;93.32
39223;BME280;24936;46.328;11.026;2023-04-21T07:35:19;94223.94;;;7.79;92.32
39223;BME280;24936;46.328;11.026;2023-04-21T07:37:45;94214.88;;;7.83;89.75
39223;BME280;24936;46.328;11.026;2023-04-21T07:40:11;94218.00;;;8.29;89.09
39223;BME280;24936;46.328;11.026;2023-04-21T07:42:36;94222.41;;;8.29;86.40
39223;BME280;24936;46.328;11.026;2023-04-21T07:45:03;94215.38;;;8.60;86.80
39223;BME280;24936;46.328;11.026;2023-04-21T07:47:29;94222.66;;;9.07;84.51
39223;BME280;24936;46.328;11.026;2023-04-21T07:49:54;94220.19;;;9.45;83.88
39223;BME280;24936;46.328;11.026;2023-04-21T07:52:20;94224.44;;;9.56;81.88
39223;BME280;24936;46.328;11.026;2023-04-21T07:54:45;94226.41;;;9.44;79.79
39223;BME280;24936;46.328;11.026;2023-04-21T07:57:11;94219.69;;;9.89;79.93
39223;BME280;24936;46.328;11.026;2023-04-21T07:59:36;94226.72;;;9.98;80.17
39223;BME280;24936;46.328;11.026;2023-04-21T08:02:02;94231.63;;;9.73;80.39
39223;BME280;24936;46.328;11.026;2023-04-21T08:04:28;94232.69;;;10.00;82.98
39223;BME280;24936;46.328;11.026;2023-04-21T08:06:53;94229.69;;;9.75;80.81
39223;BME280;24936;46.328;11.026;2023-04-21T08:09:19;94225.41;;;9.55;79.92
39223;BME280;24936;46.328;11.026;2023-04-21T08:11:44;94231.06;;;9.79;81.23
39223;BME280;24936;46.328;11.026;2023-04-21T08:14:11;94233.25;;;9.94;81.09
39223;BME280;24936;46.328;11.026;2023-04-21T08:16:37;94232.81;;;10.08;80.94
39223;BME280;24936;46.328;11.026;2023-04-21T08:19:05;94229.25;;;9.70;82.39
39223;BME280;24936;46.328;11.026;2023-04-21T08:21:31;94230.59;;;10.04;81.18
39223;BME280;24936;46.328;11.026;2023-04-21T08:23:57;94232.72;;;9.81;80.56
39223;BME280;24936;46.328;11.026;2023-04-21T08:26:23;94226.63;;;9.70;80.64
39223;BME280;24936;46.328;11.026;2023-04-21T08:28:50;94233.44;;;9.63;81.34
39223;BME280;24936;46.328;11.026;2023-04-21T08:31:17;94244.78;;;9.44;84.05
39223;BME280;24936;46.328;11.026;2023-04-21T08:33:43;94240.47;;;9.23;81.33
39223;BME280;24936;46.328;11.026;2023-04-21T08:36:09;94252.53;;;9.26;81.73
39223;BME280;24936;46.328;11.026;2023-04-21T08:38:36;94251.69;;;9.35;81.98
39223;BME280;24936;46.328;11.026;2023-04-21T08:41:02;94246.72;;;9.32;80.39
39223;BME280;24936;46.328;11.026;2023-04-21T08:43:28;94245.06;;;9.51;80.03
39223;BME280;24936;46.328;11.026;2023-04-21T08:45:54;94238.28;;;10.25;78.95
39223;BME280;24936;46.328;11.026;2023-04-21T08:48:20;94242.84;;;10.43;77.40
39223;BME280;24936;46.328;11.026;2023-04-21T08:50:48;94241.31;;;10.40;76.17
39223;BME280;24936;46.328;11.026;2023-04-21T08:53:15;94244.47;;;11.45;74.60
39223;BME280;24936;46.328;11.026;2023-04-21T08:55:41;94244.69;;;11.52;74.25
39223;BME280;24936;46.328;11.026;2023-04-21T08:58:07;94249.72;;;10.81;73.09
39223;BME280;24936;46.328;11.026;2023-04-21T09:00:34;94246.41;;;10.51;75.40
39223;BME280;24936;46.328;11.026;2023-04-21T09:03:00;94245.88;;;10.28;76.64
39223;BME280;24936;46.328;11.026;2023-04-21T09:05:33;94244.06;;;10.48;74.35
39223;BME280;24936;46.328;11.026;2023-04-21T09:08:10;94246.66;;;10.58;74.61
39223;BME280;24936;46.328;11.026;2023-04-21T09:10:49;94244.50;;;10.34;74.76
39223;BME280;24936;46.328;11.026;2023-04-21T09:13:16;94248.25;;;10.41;75.19
39223;BME280;24936;46.328;11.026;2023-04-21T09:15:44;94248.88;;;10.53;74.50
39223;BME280;24936;46.328;11.026;2023-04-21T09:18:17;94247.81;;;10.36;76.74
39223;BME280;24936;46.328;11.026;2023-04-21T09:20:44;94247.97;;;10.44;75.80
39223;BME280;24936;46.328;11.026;2023-04-21T09:23:11;94247.22;;;10.52;76.54
39223;BME280;24936;46.328;11.026;2023-04-21T09:25:38;94241.88;;;11.17;73.95
39223;BME280;24936;46.328;11.026;2023-04-21T09:28:12;94238.50;;;11.80;72.07
39223;BME280;24936;46.328;11.026;2023-04-21T09:30:40;94243.69;;;11.89;70.60
39223;BME280;24936;46.328;11.026;2023-04-21T09:33:07;94239.94;;;13.30;69.85
39223;BME280;24936;46.328;11.026;2023-04-21T09:35:34;94242.03;;;13.86;69.17
39223;BME280;24936;46.328;11.026;2023-04-21T09:38:01;94242.19;;;13.68;66.62
39223;BME280;24936;46.328;11.026;2023-04-21T09:40:29;94232.56;;;14.25;64.18
39223;BME280;24936;46.328;11.026;2023-04-21T09:42:54;94226.38;;;14.58;66.30
39223;BME280;24936;46.328;11.026;2023-04-21T09:45:24;94232.28;;;16.17;61.59
39223;BME280;24936;46.328;11.026;2023-04-21T09:47:54;94230.03;;;16.89;56.37
39223;BME280;24936;46.328;11.026;2023-04-21T09:50:22;94225.81;;;18.33;54.73
39223;BME280;24936;46.328;11.026;2023-04-21T09:52:50;94220.84;;;20.25;49.08
39223;BME280;24936;46.328;11.026;2023-04-21T09:55:18;94216.56;;;19.35;50.94
39223;BME280;24936;46.328;11.026;2023-04-21T09:57:46;94214.13;;;19.40;48.18
39223;BME280;24936;46.328;11.026;2023-04-21T10:00:18;94206.81;;;20.70;48.12
39223;BME280;24936;46.328;11.026;2023-04-21T10:02:50;94205.13;;;20.96;48.13
39223;BME280;24936;46.328;11.026;2023-04-21T10:05:15;94209.09;;;19.99;49.87
39223;BME280;24936;46.328;11.026;2023-04-21T10:07:43;94207.06;;;20.28;47.04
39223;BME280;24936;46.328;11.026;2023-04-21T10:10:27;94197.75;;;19.56;47.13
39223;BME280;24936;46.328;11.026;2023-04-21T10:12:53;94193.53;;;19.20;45.94
39223;BME280;24936;46.328;11.026;2023-04-21T10:15:33;94192.22;;;19.03;51.15
39223;BME280;24936;46.328;11.026;2023-04-21T10:18:20;94192.22;;;19.78;48.33
39223;BME280;24936;46.328;11.026;2023-04-21T10:23:28;94185.69;;;19.05;49.71
39223;BME280;24936;46.328;11.026;2023-04-21T10:26:13;94190.53;;;19.50;48.78
39223;BME280;24936;46.328;11.026;2023-04-21T10:28:47;94187.06;;;18.59;45.68
39223;BME280;24936;46.328;11.026;2023-04-21T10:31:24;94196.63;;;18.18;49.00
39223;BME280;24936;46.328;11.026;2023-04-21T10:34:17;94182.25;;;18.13;48.10
39223;BME280;24936;46.328;11.026;2023-04-21T10:39:31;94175.03;;;18.70;49.80
39223;BME280;24936;46.328;11.026;2023-04-21T10:49:57;94168.88;;;19.12;50.18
39223;BME280;24936;46.328;11.026;2023-04-21T10:52:32;94161.66;;;18.99;48.01
39223;BME280;24936;46.328;11.026;2023-04-21T10:57:23;94154.63;;;19.60;46.26
39223;BME280;24936;46.328;11.026;2023-04-21T10:59:49;94153.03;;;18.97;45.56
39223;BME280;24936;46.328;11.026;2023-04-21T11:02:16;94157.56;;;17.32;49.84
39223;BME280;24936;46.328;11.026;2023-04-21T11:04:42;94155.84;;;17.68;49.36
39223;BME280;24936;46.328;11.026;2023-04-21T11:09:42;94149.03;;;20.75;40.10
39223;BME280;24936;46.328;11.026;2023-04-21T11:12:14;94137.41;;;18.93;43.68
39223;BME280;24936;46.328;11.026;2023-04-21T11:14:42;94144.38;;;18.17;47.39
39223;BME280;24936;46.328;11.026;2023-04-21T11:17:12;94137.97;;;19.44;41.42
39223;BME280;24936;46.328;11.026;2023-04-21T11:19:38;94130.66;;;20.99;44.34
39223;BME280;24936;46.328;11.026;2023-04-21T11:22:04;94137.63;;;20.14;41.07
39223;BME280;24936;46.328;11.026;2023-04-21T11:24:31;94126.34;;;20.19;41.59
39223;BME280;24936;46.328;11.026;2023-04-21T11:26:57;94129.41;;;20.29;42.76
39223;BME280;24936;46.328;11.026;2023-04-21T11:29:23;94131.78;;;20.58;39.46
39223;BME280;24936;46.328;11.026;2023-04-21T11:31:50;94123.25;;;19.89;40.11
39223;BME280;24936;46.328;11.026;2023-04-21T11:34:19;94127.16;;;19.99;39.47
39223;BME280;24936;46.328;11.026;2023-04-21T11:36:46;94129.06;;;20.71;40.64
39223;BME280;24936;46.328;11.026;2023-04-21T11:39:27;94125.28;;;19.73;40.41
39223;BME280;24936;46.328;11.026;2023-04-21T11:41:53;94118.72;;;19.82;42.61
39223;BME280;24936;46.328;11.026;2023-04-21T11:44:33;94120.53;;;19.48;40.30
39223;BME280;24936;46.328;11.026;2023-04-21T11:46:59;94125.06;;;20.35;42.72
39223;BME280;24936;46.328;11.026;2023-04-21T11:49:25;94116.94;;;21.28;43.97
39223;BME280;24936;46.328;11.026;2023-04-21T11:51:55;94118.47;;;20.38;37.65
39223;BME280;24936;46.328;11.026;2023-04-21T11:54:21;94114.72;;;20.59;37.43
39223;BME280;24936;46.328;11.026;2023-04-21T11:56:49;94117.72;;;20.04;40.41
39223;BME280;24936;46.328;11.026;2023-04-21T11:59:17;94117.63;;;19.36;39.74
39223;BME280;24936;46.328;11.026;2023-04-21T12:01:51;94124.94;;;17.23;47.10
39223;BME280;24936;46.328;11.026;2023-04-21T12:04:20;94128.72;;;17.14;44.72
39223;BME280;24936;46.328;11.026;2023-04-21T12:06:55;94119.63;;;15.43;46.31
39223;BME280;24936;46.328;11.026;2023-04-21T12:09:21;94124.63;;;15.77;53.26
39223;BME280;24936;46.328;11.026;2023-04-21T12:11:47;94108.56;;;19.17;44.10
39223;BME280;24936;46.328;11.026;2023-04-21T12:14:15;94115.22;;;20.22;41.60
39223;BME280;24936;46.328;11.026;2023-04-21T12:16:41;94109.44;;;20.39;38.72
39223;BME280;24936;46.328;11.026;2023-04-21T12:19:07;94123.81;;;19.37;40.69
39223;BME280;24936;46.328;11.026;2023-04-21T12:21:35;94123.09;;;18.17;45.80
39223;BME280;24936;46.328;11.026;2023-04-21T12:24:01;94116.66;;;17.55;48.01
39223;BME280;24936;46.328;11.026;2023-04-21T12:26:26;94113.63;;;16.63;46.85
39223;BME280;24936;46.328;11.026;2023-04-21T12:28:52;94121.31;;;16.28;49.76
39223;BME280;24936;46.328;11.026;2023-04-21T12:31:17;94117.63;;;16.74;55.14
39223;BME280;24936;46.328;11.026;2023-04-21T12:33:43;94118.09;;;16.02;49.83
39223;BME280;24936;46.328;11.026;2023-04-21T12:36:08;94117.03;;;16.12;51.98
39223;BME280;24936;46.328;11.026;2023-04-21T12:38:34;94112.25;;;15.69;50.34
39223;BME280;24936;46.328;11.026;2023-04-21T12:40:59;94108.69;;;16.00;52.20
39223;BME280;24936;46.328;11.026;2023-04-21T12:43:25;94109.00;;;16.87;48.66
39223;BME280;24936;46.328;11.026;2023-04-21T12:45:50;94106.81;;;18.06;43.45
39223;BME280;24936;46.328;11.026;2023-04-21T12:48:17;94099.56;;;17.71;40.95
39223;BME280;24936;46.328;11.026;2023-04-21T12:50:44;94102.78;;;17.38;47.66
39223;BME280;24936;46.328;11.026;2023-04-21T12:53:10;94099.69;;;16.61;43.28
39223;BME280;24936;46.328;11.026;2023-04-21T12:55:36;94106.41;;;16.27;45.92
39223;BME280;24936;46.328;11.026;2023-04-21T12:58:01;94102.19;;;15.64;51.99
39223;BME280;24936;46.328;11.026;2023-04-21T13:00:27;94106.47;;;15.04;50.83
39223;BME280;24936;46.328;11.026;2023-04-21T13:02:52;94101.50;;;15.09;53.97
39223;BME280;24936;46.328;11.026;2023-04-21T13:05:18;94098.81;;;14.86;52.30
39223;BME280;24936;46.328;11.026;2023-04-21T13:07:44;94100.13;;;14.50;53.24
39223;BME280;24936;46.328;11.026;2023-04-21T13:10:10;94097.88;;;14.38;52.01
39223;BME280;24936;46.328;11.026;2023-04-21T13:12:35;94103.03;;;14.23;50.90
39223;BME280;24936;46.328;11.026;2023-04-21T13:15:01;94096.47;;;14.11;52.29